sensor_id;sensor_type;location;lat;lon;timestamp;temperature;humidity
72576;DHT22;60613;48.658;2.328;2023-07-22T06:02:35;24.60;34.60
72576;DHT22;60613;48.658;2.328;2023-07-22T06:05:01;24.50;35.50
72576;DHT22;60613;48.658;2.328;2023-07-22T06:07:27;24.50;35.40
72576;DHT22;60613;48.658;2.328;2023-07-22T06:09:52;24.60;35.40
72576;DHT22;60613;48.658;2.328;2023-07-22T06:12:18;24.60;35.40
72576;DHT22;60613;48.658;2.328;2023-07-22T06:14:44;24.60;35.30
72576;DHT22;60613;48.658;2.328;2023-07-22T06:17:09;24.60;35.20
72576;DHT22;60613;48.658;2.328;2023-07-22T06:19:35;24.60;35.20
72576;DHT22;60613;48.658;2.328;2023-07-22T06:22:00;24.60;35.20
72576;DHT22;60613;48.658;2.328;2023-07-22T06:24:26;24.60;35.20
72576;DHT22;60613;48.658;2.328;2023-07-22T06:26:51;24.60;35.20
72576;DHT22;60613;48.658;2.328;2023-07-22T06:29:17;24.60;35.20
72576;DHT22;60613;48.658;2.328;2023-07-22T06:31:42;24.70;35.10
72576;DHT22;60613;48.658;2.328;2023-07-22T06:34:08;24.70;35.20
72576;DHT22;60613;48.658;2.328;2023-07-22T06:36:34;24.60;35.10
72576;DHT22;60613;48.658;2.328;2023-07-22T06:38:59;24.60;35.20
72576;DHT22;60613;48.658;2.328;2023-07-22T06:41:25;24.70;35.20
72576;DHT22;60613;48.658;2.328;2023-07-22T06:43:50;24.70;35.10
72576;DHT22;60613;48.658;2.328;2023-07-22T06:46:16;24.60;35.10
72576;DHT22;60613;48.658;2.328;2023-07-22T06:48:42;24.60;35.20
72576;DHT22;60613;48.658;2.328;2023-07-22T06:51:07;24.70;36.30
72576;DHT22;60613;48.658;2.328;2023-07-22T06:53:33;24.70;35.10
72576;DHT22;60613;48.658;2.328;2023-07-22T06:55:59;24.70;35.00
72576;DHT22;60613;48.658;2.328;2023-07-22T06:58:24;24.70;35.10
72576;DHT22;60613;48.658;2.328;2023-07-22T07:00:53;24.70;35.00
72576;DHT22;60613;48.658;2.328;2023-07-22T07:03:19;24.70;35.00
72576;DHT22;60613;48.658;2.328;2023-07-22T07:05:54;24.70;35.00
72576;DHT22;60613;48.658;2.328;2023-07-22T07:08:21;24.70;35.00
72576;DHT22;60613;48.658;2.328;2023-07-22T07:10:47;24.70;35.00
72576;DHT22;60613;48.658;2.328;2023-07-22T07:13:12;24.70;35.00
72576;DHT22;60613;48.658;2.328;2023-07-22T07:15:38;24.70;35.00
72576;DHT22;60613;48.658;2.328;2023-07-22T07:18:04;24.70;35.10
72576;DHT22;60613;48.658;2.328;2023-07-22T07:20:30;24.70;35.00
72576;DHT22;60613;48.658;2.328;2023-07-22T07:22:56;24.70;35.00
72576;DHT22;60613;48.658;2.328;2023-07-22T07:25:21;24.70;35.00
72576;DHT22;60613;48.658;2.328;2023-07-22T07:27:47;24.70;35.10
72576;DHT22;60613;48.658;2.328;2023-07-22T07:30:13;24.70;35.20
72576;DHT22;60613;48.658;2.328;2023-07-22T07:32:38;24.70;35.20
72576;DHT22;60613;48.658;2.328;2023-07-22T07:35:04;24.70;36.40
72576;DHT22;60613;48.658;2.328;2023-07-22T07:37:32;24.70;35.10
72576;DHT22;60613;48.658;2.328;2023-07-22T07:39:58;24.70;36.20
72576;DHT22;60613;48.658;2.328;2023-07-22T07:42:26;24.60;35.60
72576;DHT22;60613;48.658;2.328;2023-07-22T07:44:53;24.50;36.10
72576;DHT22;60613;48.658;2.328;2023-07-22T07:47:18;24.40;37.10
72576;DHT22;60613;48.658;2.328;2023-07-22T07:49:45;24.40;36.70
72576;DHT22;60613;48.658;2.328;2023-07-22T07:52:10;24.50;37.30
72576;DHT22;60613;48.658;2.328;2023-07-22T07:54:36;24.50;37.00
72576;DHT22;60613;48.658;2.328;2023-07-22T07:57:02;24.50;37.20
72576;DHT22;60613;48.658;2.328;2023-07-22T07:59:27;24.40;37.50
72576;DHT22;60613;48.658;2.328;2023-07-22T08:01:53;24.40;37.80
72576;DHT22;60613;48.658;2.328;2023-07-22T08:04:19;24.40;37.90
72576;DHT22;60613;48.658;2.328;2023-07-22T08:06:44;24.40;38.10
72576;DHT22;60613;48.658;2.328;2023-07-22T08:09:10;24.30;38.70
72576;DHT22;60613;48.658;2.328;2023-07-22T08:11:37;24.10;39.20
72576;DHT22;60613;48.658;2.328;2023-07-22T08:14:03;24.00;39.60
72576;DHT22;60613;48.658;2.328;2023-07-22T08:16:31;23.90;39.70
72576;DHT22;60613;48.658;2.328;2023-07-22T08:18:56;24.00;39.70
72576;DHT22;60613;48.658;2.328;2023-07-22T08:21:22;24.10;39.60
72576;DHT22;60613;48.658;2.328;2023-07-22T08:23:48;24.00;39.80
72576;DHT22;60613;48.658;2.328;2023-07-22T08:26:13;24.10;39.50
72576;DHT22;60613;48.658;2.328;2023-07-22T08:28:40;23.90;39.30
72576;DHT22;60613;48.658;2.328;2023-07-22T08:31:05;23.80;39.90
72576;DHT22;60613;48.658;2.328;2023-07-22T08:33:31;23.70;40.50
72576;DHT22;60613;48.658;2.328;2023-07-22T08:35:56;23.70;40.90
72576;DHT22;60613;48.658;2.328;2023-07-22T08:38:22;23.70;40.50
72576;DHT22;60613;48.658;2.328;2023-07-22T08:40:50;23.80;40.60
72576;DHT22;60613;48.658;2.328;2023-07-22T08:43:22;23.80;40.60
72576;DHT22;60613;48.658;2.328;2023-07-22T08:45:50;23.80;40.40
72576;DHT22;60613;48.658;2.328;2023-07-22T08:48:17;23.80;40.30
72576;DHT22;60613;48.658;2.328;2023-07-22T08:50:51;23.80;40.30
72576;DHT22;60613;48.658;2.328;2023-07-22T08:53:17;23.90;39.80
72576;DHT22;60613;48.658;2.328;2023-07-22T08:55:45;24.10;39.60
72576;DHT22;60613;48.658;2.328;2023-07-22T08:58:11;24.20;39.30
72576;DHT22;60613;48.658;2.328;2023-07-22T09:00:38;24.30;38.90
72576;DHT22;60613;48.658;2.328;2023-07-22T09:03:04;24.30;38.80
72576;DHT22;60613;48.658;2.328;2023-07-22T09:05:35;24.40;39.10
72576;DHT22;60613;48.658;2.328;2023-07-22T09:08:05;24.40;42.50
72576;DHT22;60613;48.658;2.328;2023-07-22T09:10:32;24.50;40.30
72576;DHT22;60613;48.658;2.328;2023-07-22T09:12:59;24.60;40.10
72576;DHT22;60613;48.658;2.328;2023-07-22T09:15:25;24.60;39.50
72576;DHT22;60613;48.658;2.328;2023-07-22T09:17:51;24.50;39.10
72576;DHT22;60613;48.658;2.328;2023-07-22T09:20:17;24.50;39.30
72576;DHT22;60613;48.658;2.328;2023-07-22T09:22:47;24.50;40.00
72576;DHT22;60613;48.658;2.328;2023-07-22T09:25:21;24.50;40.00
72576;DHT22;60613;48.658;2.328;2023-07-22T09:27:52;24.60;40.90
72576;DHT22;60613;48.658;2.328;2023-07-22T09:30:27;24.60;40.50
72576;DHT22;60613;48.658;2.328;2023-07-22T09:32:56;24.60;41.00
72576;DHT22;60613;48.658;2.328;2023-07-22T09:35:23;24.60;40.00
72576;DHT22;60613;48.658;2.328;2023-07-22T09:37:49;24.60;39.90
72576;DHT22;60613;48.658;2.328;2023-07-22T09:40:26;24.60;39.60
72576;DHT22;60613;48.658;2.328;2023-07-22T09:42:56;24.70;39.40
72576;DHT22;60613;48.658;2.328;2023-07-22T09:45:24;24.70;39.10
72576;DHT22;60613;48.658;2.328;2023-07-22T09:47:52;24.70;39.10
72576;DHT22;60613;48.658;2.328;2023-07-22T09:50:22;24.80;38.80
72576;DHT22;60613;48.658;2.328;2023-07-22T09:52:51;24.80;38.70
72576;DHT22;60613;48.658;2.328;2023-07-22T09:55:19;24.80;38.40
72576;DHT22;60613;48.658;2.328;2023-07-22T09:57:56;24.80;38.20
72576;DHT22;60613;48.658;2.328;2023-07-22T10:00:24;24.90;38.00
72576;DHT22;60613;48.658;2.328;2023-07-22T10:02:53;24.90;37.80
72576;DHT22;60613;48.658;2.328;2023-07-22T10:05:21;24.90;37.70
72576;DHT22;60613;48.658;2.328;2023-07-22T10:07:51;24.90;37.60
72576;DHT22;60613;48.658;2.328;2023-07-22T10:10:20;25.00;37.50
72576;DHT22;60613;48.658;2.328;2023-07-22T10:12:46;25.00;37.50
72576;DHT22;60613;48.658;2.328;2023-07-22T10:15:14;25.00;37.30
72576;DHT22;60613;48.658;2.328;2023-07-22T10:17:41;25.00;37.10
72576;DHT22;60613;48.658;2.328;2023-07-22T10:20:08;24.90;37.10
72576;DHT22;60613;48.658;2.328;2023-07-22T10:22:41;25.00;37.40
72576;DHT22;60613;48.658;2.328;2023-07-22T10:25:07;25.00;37.20
72576;DHT22;60613;48.658;2.328;2023-07-22T10:27:35;25.00;37.10
72576;DHT22;60613;48.658;2.328;2023-07-22T10:30:04;25.00;37.20
72576;DHT22;60613;48.658;2.328;2023-07-22T10:35:03;25.00;37.20
72576;DHT22;60613;48.658;2.328;2023-07-22T10:37:30;25.00;37.00
72576;DHT22;60613;48.658;2.328;2023-07-22T10:40:16;25.10;37.20
72576;DHT22;60613;48.658;2.328;2023-07-22T10:42:54;25.10;36.90
72576;DHT22;60613;48.658;2.328;2023-07-22T10:45:33;25.00;37.00
72576;DHT22;60613;48.658;2.328;2023-07-22T10:48:18;25.10;36.90
72576;DHT22;60613;48.658;2.328;2023-07-22T10:50:46;25.10;36.90
72576;DHT22;60613;48.658;2.328;2023-07-22T11:06:29;25.00;36.70
72576;DHT22;60613;48.658;2.328;2023-07-22T11:08:55;25.00;36.70
72576;DHT22;60613;48.658;2.328;2023-07-22T11:11:21;25.00;36.70
72576;DHT22;60613;48.658;2.328;2023-07-22T11:13:46;25.00;36.80
72576;DHT22;60613;48.658;2.328;2023-07-22T11:16:12;24.90;36.70
72576;DHT22;60613;48.658;2.328;2023-07-22T11:18:39;25.00;36.70
72576;DHT22;60613;48.658;2.328;2023-07-22T11:21:10;25.00;36.60
72576;DHT22;60613;48.658;2.328;2023-07-22T11:23:36;25.00;36.70
72576;DHT22;60613;48.658;2.328;2023-07-22T11:26:03;24.90;36.90
72576;DHT22;60613;48.658;2.328;2023-07-22T11:28:30;24.90;36.80
72576;DHT22;60613;48.658;2.328;2023-07-22T11:30:56;24.90;37.00
72576;DHT22;60613;48.658;2.328;2023-07-22T11:33:22;24.90;37.10
72576;DHT22;60613;48.658;2.328;2023-07-22T11:35:47;24.90;36.80
72576;DHT22;60613;48.658;2.328;2023-07-22T11:38:13;25.00;37.30
72576;DHT22;60613;48.658;2.328;2023-07-22T11:40:38;24.90;36.70
72576;DHT22;60613;48.658;2.328;2023-07-22T11:43:04;24.90;36.90
72576;DHT22;60613;48.658;2.328;2023-07-22T11:45:30;24.90;36.90
72576;DHT22;60613;48.658;2.328;2023-07-22T11:47:56;25.00;37.00
72576;DHT22;60613;48.658;2.328;2023-07-22T11:50:34;25.00;37.00
72576;DHT22;60613;48.658;2.328;2023-07-22T11:53:00;25.00;38.00
72576;DHT22;60613;48.658;2.328;2023-07-22T11:55:25;25.00;36.90
72576;DHT22;60613;48.658;2.328;2023-07-22T11:57:55;25.00;37.20
72576;DHT22;60613;48.658;2.328;2023-07-22T12:00:21;25.00;36.80
72576;DHT22;60613;48.658;2.328;2023-07-22T12:02:47;25.00;36.80
72576;DHT22;60613;48.658;2.328;2023-07-22T12:05:21;25.10;36.60
72576;DHT22;60613;48.658;2.328;2023-07-22T12:07:46;25.10;36.60
72576;DHT22;60613;48.658;2.328;2023-07-22T12:10:12;25.10;36.70
72576;DHT22;60613;48.658;2.328;2023-07-22T12:12:46;25.20;36.50
72576;DHT22;60613;48.658;2.328;2023-07-22T12:15:22;25.20;36.50
72576;DHT22;60613;48.658;2.328;2023-07-22T12:17:58;25.20;36.60
72576;DHT22;60613;48.658;2.328;2023-07-22T12:20:29;25.30;37.10
72576;DHT22;60613;48.658;2.328;2023-07-22T12:22:56;25.20;36.90
72576;DHT22;60613;48.658;2.328;2023-07-22T12:25:22;25.20;36.70
72576;DHT22;60613;48.658;2.328;2023-07-22T12:27:48;25.20;37.00
72576;DHT22;60613;48.658;2.328;2023-07-22T12:30:15;25.20;37.00
72576;DHT22;60613;48.658;2.328;2023-07-22T12:32:41;25.20;36.80
72576;DHT22;60613;48.658;2.328;2023-07-22T12:35:07;25.20;36.60
72576;DHT22;60613;48.658;2.328;2023-07-22T12:37:33;25.20;36.30
72576;DHT22;60613;48.658;2.328;2023-07-22T12:39:59;25.30;36.60
72576;DHT22;60613;48.658;2.328;2023-07-22T12:42:25;25.20;36.40
72576;DHT22;60613;48.658;2.328;2023-07-22T12:44:51;25.20;36.20
72576;DHT22;60613;48.658;2.328;2023-07-22T12:47:17;25.20;36.50
72576;DHT22;60613;48.658;2.328;2023-07-22T12:49:42;25.20;36.60
72576;DHT22;60613;48.658;2.328;2023-07-22T12:52:08;25.20;36.40
72576;DHT22;60613;48.658;2.328;2023-07-22T12:54:35;25.20;36.60
72576;DHT22;60613;48.658;2.328;2023-07-22T12:57:01;25.30;36.20
72576;DHT22;60613;48.658;2.328;2023-07-22T12:59:27;25.30;35.60
72576;DHT22;60613;48.658;2.328;2023-07-22T13:01:53;25.40;34.90
72576;DHT22;60613;48.658;2.328;2023-07-22T13:04:19;25.40;34.20
72576;DHT22;60613;48.658;2.328;2023-07-22T13:06:45;25.30;34.10
72576;DHT22;60613;48.658;2.328;2023-07-22T13:09:10;25.20;35.10
72576;DHT22;60613;48.658;2.328;2023-07-22T13:11:36;25.30;34.70
72576;DHT22;60613;48.658;2.328;2023-07-22T13:14:02;25.40;35.00
72576;DHT22;60613;48.658;2.328;2023-07-22T13:16:28;25.40;34.90
72576;DHT22;60613;48.658;2.328;2023-07-22T13:18:53;25.40;35.20
72576;DHT22;60613;48.658;2.328;2023-07-22T13:21:19;25.40;35.90
72576;DHT22;60613;48.658;2.328;2023-07-22T13:23:44;25.40;35.70
72576;DHT22;60613;48.658;2.328;2023-07-22T13:26:10;25.40;35.40
72576;DHT22;60613;48.658;2.328;2023-07-22T13:28:35;25.40;35.20
72576;DHT22;60613;48.658;2.328;2023-07-22T13:31:01;25.60;34.00
72576;DHT22;60613;48.658;2.328;2023-07-22T13:33:27;25.50;33.80
72576;DHT22;60613;48.658;2.328;2023-07-22T13:35:52;25.60;34.20
72576;DHT22;60613;48.658;2.328;2023-07-22T13:38:18;25.60;34.00
72576;DHT22;60613;48.658;2.328;2023-07-22T13:40:44;25.70;33.50
72576;DHT22;60613;48.658;2.328;2023-07-22T13:43:10;25.70;33.40
72576;DHT22;60613;48.658;2.328;2023-07-22T13:45:35;25.80;33.40
72576;DHT22;60613;48.658;2.328;2023-07-22T13:48:01;25.70;33.20
72576;DHT22;60613;48.658;2.328;2023-07-22T13:50:26;25.70;33.30
72576;DHT22;60613;48.658;2.328;2023-07-22T13:52:52;25.60;33.50
72576;DHT22;60613;48.658;2.328;2023-07-22T13:55:18;25.60;34.20
72576;DHT22;60613;48.658;2.328;2023-07-22T13:57:43;25.60;33.40
72576;DHT22;60613;48.658;2.328;2023-07-22T14:00:09;25.70;33.60
72576;DHT22;60613;48.658;2.328;2023-07-22T14:02:36;25.80;33.20
72576;DHT22;60613;48.658;2.328;2023-07-22T14:05:02;25.80;33.20
72576;DHT22;60613;48.658;2.328;2023-07-22T14:07:28;25.70;33.30
72576;DHT22;60613;48.658;2.328;2023-07-22T14:09:54;25.60;33.80
72576;DHT22;60613;48.658;2.328;2023-07-22T14:12:20;25.60;34.80
72576;DHT22;60613;48.658;2.328;2023-07-22T14:14:45;25.70;33.70
72576;DHT22;60613;48.658;2.328;2023-07-22T14:17:11;25.80;34.10
72576;DHT22;60613;48.658;2.328;2023-07-22T14:19:37;25.80;33.70
72576;DHT22;60613;48.658;2.328;2023-07-22T14:22:03;25.70;33.90
72576;DHT22;60613;48.658;2.328;2023-07-22T14:24:29;25.80;33.90
72576;DHT22;60613;48.658;2.328;2023-07-22T14:26:55;25.80;33.90
72576;DHT22;60613;48.658;2.328;2023-07-22T14:29:20;25.80;33.80
72576;DHT22;60613;48.658;2.328;2023-07-22T14:31:47;25.80;33.80
72576;DHT22;60613;48.658;2.328;2023-07-22T14:34:12;25.70;33.90
72576;DHT22;60613;48.658;2.328;2023-07-22T14:36:38;25.80;33.80
72576;DHT22;60613;48.658;2.328;2023-07-22T14:39:03;25.80;34.30
72576;DHT22;60613;48.658;2.328;2023-07-22T14:41:30;25.90;34.90
72576;DHT22;60613;48.658;2.328;2023-07-22T14:43:56;25.90;34.40
72576;DHT22;60613;48.658;2.328;2023-07-22T14:46:21;26.00;34.90
72576;DHT22;60613;48.658;2.328;2023-07-22T14:48:47;26.00;35.00
72576;DHT22;60613;48.658;2.328;2023-07-22T14:51:13;26.00;34.70
72576;DHT22;60613;48.658;2.328;2023-07-22T14:53:38;26.10;35.30
72576;DHT22;60613;48.658;2.328;2023-07-22T14:56:04;26.10;35.20
72576;DHT22;60613;48.658;2.328;2023-07-22T14:58:31;26.10;35.00
72576;DHT22;60613;48.658;2.328;2023-07-22T15:00:57;26.10;35.40
72576;DHT22;60613;48.658;2.328;2023-07-22T15:03:23;26.20;35.60
72576;DHT22;60613;48.658;2.328;2023-07-22T15:05:48;26.20;35.40
72576;DHT22;60613;48.658;2.328;2023-07-22T15:08:14;26.20;35.80
72576;DHT22;60613;48.658;2.328;2023-07-22T15:10:40;26.30;35.80
72576;DHT22;60613;48.658;2.328;2023-07-22T15:13:06;26.30;35.10
72576;DHT22;60613;48.658;2.328;2023-07-22T15:15:31;26.40;34.90
72576;DHT22;60613;48.658;2.328;2023-07-22T15:17:57;26.40;33.50
72576;DHT22;60613;48.658;2.328;2023-07-22T15:20:22;26.40;33.00
72576;DHT22;60613;48.658;2.328;2023-07-22T15:22:49;26.50;33.10
72576;DHT22;60613;48.658;2.328;2023-07-22T15:25:14;26.50;33.70
72576;DHT22;60613;48.658;2.328;2023-07-22T15:27:40;26.60;34.10
72576;DHT22;60613;48.658;2.328;2023-07-22T15:30:06;26.60;33.20
72576;DHT22;60613;48.658;2.328;2023-07-22T15:32:32;26.70;33.80
72576;DHT22;60613;48.658;2.328;2023-07-22T15:34:57;26.70;32.90
72576;DHT22;60613;48.658;2.328;2023-07-22T15:37:23;26.60;32.90
72576;DHT22;60613;48.658;2.328;2023-07-22T15:39:50;26.70;32.60
72576;DHT22;60613;48.658;2.328;2023-07-22T15:42:16;26.70;32.60
72576;DHT22;60613;48.658;2.328;2023-07-22T15:44:41;26.70;31.70
72576;DHT22;60613;48.658;2.328;2023-07-22T15:47:07;26.70;31.30
72576;DHT22;60613;48.658;2.328;2023-07-22T15:49:33;26.70;31.60
72576;DHT22;60613;48.658;2.328;2023-07-22T15:51:58;26.80;31.10
72576;DHT22;60613;48.658;2.328;2023-07-22T15:54:24;26.90;31.10
72576;DHT22;60613;48.658;2.328;2023-07-22T15:56:50;26.90;31.30
72576;DHT22;60613;48.658;2.328;2023-07-22T15:59:16;26.90;31.40
72576;DHT22;60613;48.658;2.328;2023-07-22T16:01:41;26.90;30.70
72576;DHT22;60613;48.658;2.328;2023-07-22T16:04:08;26.80;30.00
72576;DHT22;60613;48.658;2.328;2023-07-22T16:06:33;26.90;30.50
72576;DHT22;60613;48.658;2.328;2023-07-22T16:08:59;27.00;30.20
72576;DHT22;60613;48.658;2.328;2023-07-22T16:11:25;27.00;30.40
72576;DHT22;60613;48.658;2.328;2023-07-22T16:13:50;27.10;31.00
72576;DHT22;60613;48.658;2.328;2023-07-22T16:16:16;27.10;31.10
72576;DHT22;60613;48.658;2.328;2023-07-22T16:18:42;27.10;30.20
72576;DHT22;60613;48.658;2.328;2023-07-22T16:21:07;27.10;29.90
72576;DHT22;60613;48.658;2.328;2023-07-22T16:23:34;27.10;30.30
72576;DHT22;60613;48.658;2.328;2023-07-22T16:26:00;27.10;30.80
72576;DHT22;60613;48.658;2.328;2023-07-22T16:28:25;27.20;30.80
72576;DHT22;60613;48.658;2.328;2023-07-22T16:30:52;27.10;30.10
72576;DHT22;60613;48.658;2.328;2023-07-22T16:33:17;27.20;30.00
72576;DHT22;60613;48.658;2.328;2023-07-22T16:35:43;27.20;30.00
72576;DHT22;60613;48.658;2.328;2023-07-22T16:38:08;27.20;30.30
72576;DHT22;60613;48.658;2.328;2023-07-22T16:40:34;27.20;30.00
72576;DHT22;60613;48.658;2.328;2023-07-22T16:43:00;27.30;30.30
72576;DHT22;60613;48.658;2.328;2023-07-22T16:45:25;27.30;30.50
72576;DHT22;60613;48.658;2.328;2023-07-22T16:47:51;27.30;29.80
72576;DHT22;60613;48.658;2.328;2023-07-22T16:50:17;27.30;30.10
72576;DHT22;60613;48.658;2.328;2023-07-22T16:52:42;27.30;30.00
72576;DHT22;60613;48.658;2.328;2023-07-22T16:55:08;27.30;29.90
72576;DHT22;60613;48.658;2.328;2023-07-22T16:57:37;27.30;30.00
72576;DHT22;60613;48.658;2.328;2023-07-22T17:00:06;27.30;29.70
72576;DHT22;60613;48.658;2.328;2023-07-22T17:02:35;27.30;30.00
72576;DHT22;60613;48.658;2.328;2023-07-22T17:05:00;27.30;30.10
72576;DHT22;60613;48.658;2.328;2023-07-22T17:07:26;27.30;30.60
72576;DHT22;60613;48.658;2.328;2023-07-22T17:09:51;27.30;31.20
72576;DHT22;60613;48.658;2.328;2023-07-22T17:12:17;27.30;31.70
72576;DHT22;60613;48.658;2.328;2023-07-22T17:14:42;27.30;31.70
72576;DHT22;60613;48.658;2.328;2023-07-22T17:17:08;27.20;32.30
72576;DHT22;60613;48.658;2.328;2023-07-22T17:19:33;27.10;32.40
72576;DHT22;60613;48.658;2.328;2023-07-22T17:21:59;27.10;32.80
72576;DHT22;60613;48.658;2.328;2023-07-22T17:24:25;27.00;32.70
72576;DHT22;60613;48.658;2.328;2023-07-22T17:26:50;27.10;33.50
72576;DHT22;60613;48.658;2.328;2023-07-22T17:29:16;27.00;32.70
72576;DHT22;60613;48.658;2.328;2023-07-22T17:31:41;27.00;32.70
72576;DHT22;60613;48.658;2.328;2023-07-22T17:34:07;27.00;32.70
72576;DHT22;60613;48.658;2.328;2023-07-22T17:36:32;27.00;32.80
72576;DHT22;60613;48.658;2.328;2023-07-22T17:38:58;27.00;32.70
72576;DHT22;60613;48.658;2.328;2023-07-22T17:41:23;27.00;32.70
72576;DHT22;60613;48.658;2.328;2023-07-22T17:43:49;27.00;32.80
72576;DHT22;60613;48.658;2.328;2023-07-22T17:46:14;27.00;32.90
72576;DHT22;60613;48.658;2.328;2023-07-22T17:48:40;27.00;32.90
72576;DHT22;60613;48.658;2.328;2023-07-22T17:51:05;26.90;32.90
72576;DHT22;60613;48.658;2.328;2023-07-22T17:53:31;26.90;33.00
72576;DHT22;60613;48.658;2.328;2023-07-22T17:55:57;26.90;33.10
72576;DHT22;60613;48.658;2.328;2023-07-22T17:58:22;26.90;33.00
72576;DHT22;60613;48.658;2.328;2023-07-22T18:00:48;26.90;33.10
72576;DHT22;60613;48.658;2.328;2023-07-22T18:03:13;26.90;33.20
72576;DHT22;60613;48.658;2.328;2023-07-22T18:05:48;26.90;33.30
72576;DHT22;60613;48.658;2.328;2023-07-22T18:08:14;26.90;34.40
72576;DHT22;60613;48.658;2.328;2023-07-22T18:10:39;26.90;33.30
72576;DHT22;60613;48.658;2.328;2023-07-22T18:13:06;26.90;33.30
72576;DHT22;60613;48.658;2.328;2023-07-22T18:15:32;26.80;33.30
72576;DHT22;60613;48.658;2.328;2023-07-22T18:17:57;26.80;33.30
72576;DHT22;60613;48.658;2.328;2023-07-22T18:20:23;26.80;33.40
72576;DHT22;60613;48.658;2.328;2023-07-22T18:22:48;26.80;33.40
72576;DHT22;60613;48.658;2.328;2023-07-22T18:25:14;26.80;33.40
72576;DHT22;60613;48.658;2.328;2023-07-22T18:27:40;26.80;33.50
72576;DHT22;60613;48.658;2.328;2023-07-22T18:30:06;26.80;33.60
72576;DHT22;60613;48.658;2.328;2023-07-22T18:32:31;26.80;33.60
72576;DHT22;60613;48.658;2.328;2023-07-22T18:34:57;26.80;33.60
72576;DHT22;60613;48.658;2.328;2023-07-22T18:37:24;26.80;33.60
72576;DHT22;60613;48.658;2.328;2023-07-22T18:39:50;26.80;33.60
72576;DHT22;60613;48.658;2.328;2023-07-22T18:42:16;26.80;33.80
72576;DHT22;60613;48.658;2.328;2023-07-22T18:44:41;26.80;33.80
72576;DHT22;60613;48.658;2.328;2023-07-22T18:47:07;26.70;33.70
72576;DHT22;60613;48.658;2.328;2023-07-22T18:49:35;26.70;33.80
72576;DHT22;60613;48.658;2.328;2023-07-22T18:52:01;26.70;33.80
72576;DHT22;60613;48.658;2.328;2023-07-22T18:54:27;26.70;33.90
72576;DHT22;60613;48.658;2.328;2023-07-22T18:56:52;26.70;35.10
72576;DHT22;60613;48.658;2.328;2023-07-22T18:59:18;26.70;33.90
